Aviation Digital Data Service (ADDS)

Output produced by TAFs form (1609 UTC 20 April 2014)
found at http://aviationweather.gov/adds/tafs/
 
KABQ 201141Z 2012/2112 12007KT P6SM SCT070 SCT100 
     FM201500 27008KT P6SM SCT080 BKN120 
     FM202000 30014G22KT P6SM VCSH BKN100 
     FM210200 05007KT P6SM SCT120